createdAt,value
2019-02-25T14:18:55.283Z,21.95
2019-02-25T14:21:22.602Z,18.85
2019-02-25T14:23:49.888Z,14.50
2019-02-25T14:26:18.987Z,17.50
2019-02-25T14:28:46.697Z,14.25
2019-02-25T14:31:15.151Z,12.63
2019-02-25T14:33:42.440Z,12.78
2019-02-25T14:36:10.600Z,9.93
2019-02-25T14:38:38.235Z,6.22
2019-02-25T14:41:06.927Z,10.53
2019-02-25T14:43:41.767Z,10.40
2019-02-25T14:46:04.880Z,11.10
2019-02-25T14:48:32.914Z,8.70
2019-02-25T14:51:01.388Z,15.75
2019-02-25T14:53:29.645Z,8.10
2019-02-25T14:55:58.411Z,8.20
2019-02-25T14:58:26.124Z,5.30
2019-02-25T15:00:53.584Z,5.37
2019-02-25T15:03:22.507Z,7.85
2019-02-25T15:05:50.220Z,7.17
2019-02-25T15:08:19.858Z,4.83
2019-02-25T15:10:47.775Z,6.75
2019-02-25T15:13:15.063Z,8.50
2019-02-25T15:15:44.055Z,10.50
2019-02-25T15:18:11.319Z,7.60
2019-02-25T15:20:38.639Z,11.85
2019-02-25T15:23:07.420Z,6.87
2019-02-25T15:25:37.240Z,14.58
2019-02-25T15:28:07.134Z,12.33
2019-02-25T15:30:32.871Z,10.08
2019-02-25T15:33:00.505Z,12.37
2019-02-25T15:35:31.375Z,10.90
2019-02-25T15:37:57.889Z,5.15
2019-02-25T15:40:27.293Z,8.08
2019-02-25T15:43:01.118Z,6.28
2019-02-25T15:45:30.707Z,6.58
2019-02-25T15:47:59.700Z,7.55
2019-02-25T15:50:27.159Z,6.80
2019-02-25T15:52:54.559Z,6.97
2019-02-25T15:55:23.347Z,4.42
2019-02-25T15:57:50.807Z,4.87
2019-02-25T16:00:21.235Z,8.43
2019-02-25T16:02:52.474Z,9.80
2019-02-25T16:05:23.224Z,11.22
2019-02-25T16:07:49.794Z,12.20
2019-02-25T16:10:17.787Z,10.78
2019-02-25T16:12:45.102Z,9.95
2019-02-25T16:15:15.762Z,11.73
2019-02-25T16:17:45.229Z,10.88
2019-02-25T16:20:14.171Z,8.93
2019-02-25T16:22:41.474Z,12.35
2019-02-25T16:25:13.078Z,7.83
2019-02-25T16:27:41.211Z,7.15
2019-02-25T16:30:10.730Z,7.05
2019-02-25T16:32:39.620Z,6.10
2019-02-25T16:35:08.347Z,7.00
2019-02-25T16:37:35.677Z,6.50
2019-02-25T16:40:05.400Z,5.78
2019-02-25T16:42:32.406Z,5.45
2019-02-25T16:45:01.427Z,5.65
2019-02-25T16:47:34.578Z,8.58
2019-02-25T16:49:59.035Z,4.17
2019-02-25T16:52:27.326Z,4.10
2019-02-25T16:54:54.615Z,5.97
2019-02-25T16:57:23.363Z,4.92
2019-02-25T16:59:53.315Z,6.00
2019-02-25T17:02:19.943Z,5.15
2019-02-25T17:04:47.271Z,5.42
2019-02-25T17:07:16.089Z,6.03
2019-02-25T17:09:43.565Z,6.03
2019-02-25T17:12:10.939Z,6.17
2019-02-25T17:14:40.552Z,8.48
2019-02-25T17:17:07.221Z,6.22
2019-02-25T17:19:35.795Z,9.05
2019-02-25T17:22:05.174Z,9.63
2019-02-25T17:24:34.307Z,6.40
2019-02-25T17:27:02.026Z,5.92
2019-02-25T17:29:31.931Z,5.60
2019-02-25T17:32:01.361Z,6.80
2019-02-25T17:34:28.339Z,6.20
2019-02-25T17:36:55.825Z,7.12
2019-02-25T17:39:23.143Z,7.97
2019-02-25T17:41:50.439Z,5.90
2019-02-25T17:44:17.872Z,6.60
2019-02-25T17:46:46.691Z,5.53
2019-02-25T17:49:14.537Z,5.70
2019-02-25T17:51:42.984Z,6.45
2019-02-25T17:54:11.993Z,6.40
2019-02-25T17:56:40.523Z,6.75
2019-02-25T17:59:09.648Z,8.40
2019-02-25T18:01:37.087Z,8.13
2019-02-25T18:04:06.476Z,6.62
2019-02-25T18:06:34.007Z,5.20
2019-02-25T18:09:02.332Z,5.45
2019-02-25T18:11:29.650Z,9.03
2019-02-25T18:13:57.830Z,4.05
2019-02-25T18:16:25.246Z,6.08
2019-02-25T18:18:54.312Z,6.62
2019-02-25T18:21:21.494Z,6.67
2019-02-25T18:23:49.421Z,4.87
2019-02-25T18:26:17.747Z,5.78
2019-02-25T18:28:45.898Z,8.00
2019-02-25T18:31:13.947Z,5.97
2019-02-25T18:33:42.012Z,7.58
2019-02-25T18:36:11.278Z,5.60
2019-02-25T18:38:38.658Z,12.73
2019-02-25T18:41:07.032Z,12.25
2019-02-25T18:43:34.927Z,10.25
2019-02-25T18:46:02.876Z,10.18
2019-02-25T18:48:31.179Z,7.42
2019-02-25T18:50:59.601Z,9.03
2019-02-25T18:53:27.438Z,7.40
2019-02-25T18:55:56.629Z,8.48
2019-02-25T18:58:23.710Z,8.18
2019-02-25T19:00:51.474Z,8.63
2019-02-25T19:03:18.892Z,9.73
2019-02-25T19:05:46.281Z,7.70
2019-02-25T19:08:19.813Z,8.45
2019-02-25T19:10:48.105Z,8.85
2019-02-25T19:13:15.994Z,8.95
2019-02-25T19:15:44.622Z,8.80
2019-02-25T19:18:13.322Z,6.08
2019-02-25T19:20:41.552Z,5.70
2019-02-25T19:23:10.261Z,11.48
2019-02-25T19:25:38.881Z,8.13
2019-02-25T19:28:06.471Z,7.87
2019-02-25T19:30:34.468Z,6.65
2019-02-25T19:33:10.962Z,8.20
2019-02-25T19:35:32.762Z,7.00
2019-02-25T19:38:03.135Z,6.08
2019-02-25T19:40:28.780Z,8.70
2019-02-25T19:42:56.837Z,7.80
2019-02-25T19:45:25.384Z,9.13
2019-02-25T19:47:52.703Z,9.70
2019-02-25T19:50:21.683Z,7.08
2019-02-25T19:52:48.999Z,8.15
2019-02-25T19:55:19.862Z,13.28
2019-02-25T19:57:45.223Z,6.15
2019-02-25T20:00:25.709Z,12.35
2019-02-25T20:02:52.595Z,14.70
2019-02-25T20:05:21.742Z,9.48
2019-02-25T20:07:49.224Z,10.70
2019-02-25T20:10:16.787Z,12.03
2019-02-25T20:12:44.109Z,12.75
2019-02-25T20:15:18.037Z,24.82
2019-02-25T20:17:46.786Z,28.23
2019-02-25T20:20:15.012Z,22.93
2019-02-25T20:22:42.507Z,26.07
2019-02-25T20:25:12.621Z,30.77
2019-02-25T20:27:40.403Z,24.00
2019-02-25T20:30:12.039Z,30.45
2019-02-25T20:32:40.694Z,31.85
2019-02-25T20:35:09.679Z,24.32
2019-02-25T20:37:36.982Z,31.00
2019-02-25T20:40:05.475Z,37.20
2019-02-25T20:42:32.844Z,29.92
2019-02-25T20:45:02.387Z,36.63
2019-02-25T20:47:29.187Z,32.93
2019-02-25T20:49:57.859Z,33.73
2019-02-25T20:52:25.468Z,33.00
2019-02-25T20:54:52.763Z,34.50
2019-02-25T20:57:20.103Z,35.23
2019-02-25T20:59:48.817Z,31.40
2019-02-25T21:02:18.617Z,40.05
2019-02-25T21:04:46.027Z,34.05
2019-02-25T21:07:14.294Z,34.38
2019-02-25T21:09:42.240Z,34.98
2019-02-25T21:12:10.450Z,38.45
2019-02-25T21:14:40.998Z,38.90
2019-02-25T21:17:07.563Z,42.90
2019-02-25T21:19:36.257Z,41.98
2019-02-25T21:22:04.469Z,42.30
2019-02-25T21:24:33.627Z,50.48
2019-02-25T21:27:03.584Z,42.00
2019-02-25T21:29:31.755Z,47.65
2019-02-25T21:31:59.659Z,47.60
2019-02-25T21:34:28.620Z,39.78
2019-02-25T21:36:56.260Z,45.98
2019-02-25T21:39:24.874Z,49.93
2019-02-25T21:41:52.176Z,55.55
2019-02-25T21:44:21.327Z,66.10
2019-02-25T21:46:51.841Z,54.15
2019-02-25T21:49:17.451Z,63.40
2019-02-25T21:51:47.841Z,58.50
2019-02-25T21:54:13.691Z,58.70
2019-02-25T21:56:41.011Z,67.90
2019-02-25T21:59:08.867Z,71.60
2019-02-25T22:01:38.915Z,65.17
2019-02-25T22:04:09.221Z,68.20
2019-02-25T22:06:35.207Z,76.67
2019-02-25T22:09:04.581Z,76.67
2019-02-25T22:11:31.543Z,85.40
2019-02-25T22:13:58.867Z,84.90
2019-02-25T22:16:27.793Z,83.03
2019-02-25T22:18:56.530Z,81.75
2019-02-25T22:21:24.066Z,85.15
2019-02-25T22:23:54.220Z,77.45
2019-02-25T22:26:20.325Z,91.25
2019-02-25T22:28:47.622Z,87.67
2019-02-25T22:31:16.190Z,84.75
2019-02-25T22:33:43.886Z,90.83
2019-02-25T22:36:11.183Z,93.80
2019-02-25T22:38:38.526Z,93.67
2019-02-25T22:41:05.851Z,91.78
2019-02-25T22:43:33.139Z,83.45
2019-02-25T22:46:02.357Z,86.25
2019-02-25T22:48:29.416Z,98.27
2019-02-25T22:50:57.775Z,92.65
2019-02-25T22:53:25.683Z,95.85
2019-02-25T22:55:54.754Z,98.78
2019-02-25T22:58:22.107Z,102.85
2019-02-25T23:00:51.047Z,102.32
2019-02-25T23:03:20.417Z,100.05
2019-02-25T23:05:48.692Z,99.25
2019-02-25T23:08:18.062Z,96.22
2019-02-25T23:11:04.759Z,105.10
2019-02-25T23:13:32.095Z,102.05
2019-02-25T23:15:59.371Z,97.00
2019-02-25T23:18:28.029Z,105.97
2019-02-25T23:20:57.514Z,98.40
2019-02-25T23:23:26.469Z,109.83
2019-02-25T23:25:54.186Z,101.85
2019-02-25T23:28:22.936Z,96.63
2019-02-25T23:30:53.280Z,111.83
2019-02-25T23:33:22.719Z,102.17
2019-02-25T23:35:51.301Z,99.10
2019-02-25T23:38:18.219Z,114.32
2019-02-25T23:40:47.100Z,110.12
2019-02-25T23:43:16.504Z,120.55
2019-02-25T23:45:44.291Z,105.47
2019-02-25T23:48:12.351Z,107.10
2019-02-25T23:50:39.679Z,112.95
2019-02-25T23:53:06.991Z,110.72
2019-02-25T23:55:34.322Z,121.75
2019-02-25T23:58:01.619Z,120.55
